Terminal Aerodrome Forecast
Issued by NWS Buffalo, NY

Home | Current Version | Previous Version | Text Only | Print | Product List | Glossary On
Versions: 1 2 3 4 5 6 7 8 9 10 11 12 13 14 15 16 17 18 19 20 21 22 23 24 25 26 27 28 29
000
FTUS41 KBUF 221728
TAFROC
TAF
KROC 221728Z 2218/2318 08005KT 3SM BR OVC003
     FM222200 05006KT 1SM -DZ BR OVC003
     FM230500 06008KT 3SM BR OVC005
     FM231000 08010KT P6SM OVC012
     FM231700 08012KT 6SM -RA OVC015=

USA.gov is the U.S. government's official web portal to all federal, state and local government web resources and services.